sensor_id;sensor_type;location;lat;lon;timestamp;P1;durP1;ratioP1;P2;durP2;ratioP2
79478;SDS011;68943;49.472;17.970;2023-05-07T00:00:42;14.30;;;10.18;;
79478;SDS011;68943;49.472;17.970;2023-05-07T00:03:08;13.98;;;9.13;;
79478;SDS011;68943;49.472;17.970;2023-05-07T00:05:34;15.15;;;10.23;;
79478;SDS011;68943;49.472;17.970;2023-05-07T00:08:01;15.98;;;11.13;;
79478;SDS011;68943;49.472;17.970;2023-05-07T00:10:27;16.05;;;10.55;;
79478;SDS011;68943;49.472;17.970;2023-05-07T00:12:53;13.30;;;8.98;;
79478;SDS011;68943;49.472;17.970;2023-05-07T00:15:19;15.77;;;11.35;;
79478;SDS011;68943;49.472;17.970;2023-05-07T00:17:45;12.88;;;8.88;;
79478;SDS011;68943;49.472;17.970;2023-05-07T00:20:11;16.30;;;10.90;;
79478;SDS011;68943;49.472;17.970;2023-05-07T00:22:37;14.73;;;9.07;;
79478;SDS011;68943;49.472;17.970;2023-05-07T00:25:04;16.42;;;11.27;;
79478;SDS011;68943;49.472;17.970;2023-05-07T00:27:30;17.63;;;10.82;;
79478;SDS011;68943;49.472;17.970;2023-05-07T00:29:56;17.13;;;10.27;;
79478;SDS011;68943;49.472;17.970;2023-05-07T00:32:22;17.13;;;11.80;;
79478;SDS011;68943;49.472;17.970;2023-05-07T00:34:48;16.40;;;11.00;;
79478;SDS011;68943;49.472;17.970;2023-05-07T00:37:15;20.23;;;12.80;;
79478;SDS011;68943;49.472;17.970;2023-05-07T00:39:41;20.92;;;12.85;;
79478;SDS011;68943;49.472;17.970;2023-05-07T00:42:07;21.40;;;12.90;;
79478;SDS011;68943;49.472;17.970;2023-05-07T00:44:33;20.30;;;12.82;;
79478;SDS011;68943;49.472;17.970;2023-05-07T00:47:00;23.25;;;13.98;;
79478;SDS011;68943;49.472;17.970;2023-05-07T00:49:31;24.67;;;14.02;;
79478;SDS011;68943;49.472;17.970;2023-05-07T00:52:00;20.75;;;12.20;;
79478;SDS011;68943;49.472;17.970;2023-05-07T00:54:27;20.52;;;12.85;;
79478;SDS011;68943;49.472;17.970;2023-05-07T00:56:53;23.17;;;14.15;;
79478;SDS011;68943;49.472;17.970;2023-05-07T00:59:20;22.15;;;12.35;;
79478;SDS011;68943;49.472;17.970;2023-05-07T01:01:46;20.90;;;13.60;;
79478;SDS011;68943;49.472;17.970;2023-05-07T01:04:12;23.33;;;14.43;;
79478;SDS011;68943;49.472;17.970;2023-05-07T01:06:38;20.73;;;12.23;;
79478;SDS011;68943;49.472;17.970;2023-05-07T01:09:04;18.85;;;12.43;;
79478;SDS011;68943;49.472;17.970;2023-05-07T01:11:30;18.95;;;11.18;;
79478;SDS011;68943;49.472;17.970;2023-05-07T01:13:57;17.30;;;10.23;;
79478;SDS011;68943;49.472;17.970;2023-05-07T01:16:24;19.70;;;12.05;;
79478;SDS011;68943;49.472;17.970;2023-05-07T01:18:51;20.30;;;11.88;;
79478;SDS011;68943;49.472;17.970;2023-05-07T01:21:18;20.40;;;11.95;;
79478;SDS011;68943;49.472;17.970;2023-05-07T01:23:44;17.35;;;10.63;;
79478;SDS011;68943;49.472;17.970;2023-05-07T01:26:11;19.02;;;11.18;;
79478;SDS011;68943;49.472;17.970;2023-05-07T01:28:37;16.88;;;10.57;;
79478;SDS011;68943;49.472;17.970;2023-05-07T01:31:03;18.17;;;8.85;;
79478;SDS011;68943;49.472;17.970;2023-05-07T01:33:31;19.27;;;10.63;;
79478;SDS011;68943;49.472;17.970;2023-05-07T01:35:59;17.42;;;10.02;;
79478;SDS011;68943;49.472;17.970;2023-05-07T01:38:27;19.17;;;11.27;;
79478;SDS011;68943;49.472;17.970;2023-05-07T01:40:53;16.70;;;9.90;;
79478;SDS011;68943;49.472;17.970;2023-05-07T01:43:19;18.52;;;10.82;;
79478;SDS011;68943;49.472;17.970;2023-05-07T01:45:45;19.55;;;11.13;;
79478;SDS011;68943;49.472;17.970;2023-05-07T01:48:14;16.13;;;9.85;;
79478;SDS011;68943;49.472;17.970;2023-05-07T01:50:40;16.33;;;10.45;;
79478;SDS011;68943;49.472;17.970;2023-05-07T01:53:06;22.13;;;11.35;;
79478;SDS011;68943;49.472;17.970;2023-05-07T01:55:32;18.38;;;10.60;;
79478;SDS011;68943;49.472;17.970;2023-05-07T01:57:58;18.25;;;11.05;;
79478;SDS011;68943;49.472;17.970;2023-05-07T02:00:25;16.10;;;9.10;;
79478;SDS011;68943;49.472;17.970;2023-05-07T02:02:51;16.45;;;10.30;;
79478;SDS011;68943;49.472;17.970;2023-05-07T02:05:17;19.13;;;9.40;;
79478;SDS011;68943;49.472;17.970;2023-05-07T02:07:43;17.92;;;10.07;;
79478;SDS011;68943;49.472;17.970;2023-05-07T02:10:09;17.10;;;10.32;;
79478;SDS011;68943;49.472;17.970;2023-05-07T02:12:35;18.42;;;11.20;;
79478;SDS011;68943;49.472;17.970;2023-05-07T02:15:02;19.05;;;11.98;;
79478;SDS011;68943;49.472;17.970;2023-05-07T02:17:28;15.57;;;9.07;;
79478;SDS011;68943;49.472;17.970;2023-05-07T02:19:56;15.20;;;11.00;;
79478;SDS011;68943;49.472;17.970;2023-05-07T02:22:22;20.85;;;11.77;;
79478;SDS011;68943;49.472;17.970;2023-05-07T02:24:48;18.60;;;10.77;;
79478;SDS011;68943;49.472;17.970;2023-05-07T02:27:14;20.10;;;11.05;;
79478;SDS011;68943;49.472;17.970;2023-05-07T02:29:40;18.45;;;12.20;;
79478;SDS011;68943;49.472;17.970;2023-05-07T02:32:06;20.52;;;11.55;;
79478;SDS011;68943;49.472;17.970;2023-05-07T02:34:32;21.60;;;12.52;;
79478;SDS011;68943;49.472;17.970;2023-05-07T02:36:59;20.15;;;12.25;;
79478;SDS011;68943;49.472;17.970;2023-05-07T02:39:25;21.38;;;12.57;;
79478;SDS011;68943;49.472;17.970;2023-05-07T02:41:51;17.92;;;10.13;;
79478;SDS011;68943;49.472;17.970;2023-05-07T02:44:17;16.35;;;10.55;;
79478;SDS011;68943;49.472;17.970;2023-05-07T02:46:42;16.02;;;10.60;;
79478;SDS011;68943;49.472;17.970;2023-05-07T02:49:08;16.20;;;11.70;;
79478;SDS011;68943;49.472;17.970;2023-05-07T02:51:35;17.58;;;11.38;;
79478;SDS011;68943;49.472;17.970;2023-05-07T02:54:01;19.23;;;10.98;;
79478;SDS011;68943;49.472;17.970;2023-05-07T02:56:27;16.77;;;10.90;;
79478;SDS011;68943;49.472;17.970;2023-05-07T02:58:53;17.52;;;11.52;;
79478;SDS011;68943;49.472;17.970;2023-05-07T03:01:19;17.30;;;11.15;;
79478;SDS011;68943;49.472;17.970;2023-05-07T03:03:45;16.50;;;9.90;;
79478;SDS011;68943;49.472;17.970;2023-05-07T03:06:11;15.20;;;9.35;;
79478;SDS011;68943;49.472;17.970;2023-05-07T03:08:37;14.48;;;9.27;;
79478;SDS011;68943;49.472;17.970;2023-05-07T03:11:03;19.65;;;10.85;;
79478;SDS011;68943;49.472;17.970;2023-05-07T03:13:29;17.20;;;11.70;;
79478;SDS011;68943;49.472;17.970;2023-05-07T03:15:55;16.85;;;10.00;;
79478;SDS011;68943;49.472;17.970;2023-05-07T03:18:21;17.02;;;10.70;;
79478;SDS011;68943;49.472;17.970;2023-05-07T03:20:48;16.00;;;10.20;;
79478;SDS011;68943;49.472;17.970;2023-05-07T03:23:14;15.32;;;10.13;;
79478;SDS011;68943;49.472;17.970;2023-05-07T03:25:40;16.48;;;11.43;;
79478;SDS011;68943;49.472;17.970;2023-05-07T03:28:06;17.65;;;10.60;;
79478;SDS011;68943;49.472;17.970;2023-05-07T03:30:32;15.57;;;9.18;;
79478;SDS011;68943;49.472;17.970;2023-05-07T03:32:58;18.55;;;11.63;;
79478;SDS011;68943;49.472;17.970;2023-05-07T03:35:24;20.02;;;12.30;;
79478;SDS011;68943;49.472;17.970;2023-05-07T03:37:51;18.10;;;11.60;;
79478;SDS011;68943;49.472;17.970;2023-05-07T03:40:17;14.35;;;8.90;;
79478;SDS011;68943;49.472;17.970;2023-05-07T03:42:43;18.63;;;11.70;;
79478;SDS011;68943;49.472;17.970;2023-05-07T03:45:09;17.63;;;12.02;;
79478;SDS011;68943;49.472;17.970;2023-05-07T03:47:35;17.42;;;11.90;;
79478;SDS011;68943;49.472;17.970;2023-05-07T03:50:01;15.80;;;9.93;;
79478;SDS011;68943;49.472;17.970;2023-05-07T03:52:27;18.30;;;11.95;;
79478;SDS011;68943;49.472;17.970;2023-05-07T03:54:53;17.90;;;11.77;;
79478;SDS011;68943;49.472;17.970;2023-05-07T03:57:22;18.73;;;12.05;;
79478;SDS011;68943;49.472;17.970;2023-05-07T03:59:51;18.20;;;11.23;;
79478;SDS011;68943;49.472;17.970;2023-05-07T04:02:17;16.92;;;11.07;;
79478;SDS011;68943;49.472;17.970;2023-05-07T04:04:43;19.00;;;11.48;;
79478;SDS011;68943;49.472;17.970;2023-05-07T04:07:09;17.33;;;10.60;;
79478;SDS011;68943;49.472;17.970;2023-05-07T04:09:35;15.90;;;10.20;;
79478;SDS011;68943;49.472;17.970;2023-05-07T04:12:01;18.40;;;10.23;;
79478;SDS011;68943;49.472;17.970;2023-05-07T04:14:27;13.95;;;9.48;;
79478;SDS011;68943;49.472;17.970;2023-05-07T04:16:53;13.38;;;8.85;;
79478;SDS011;68943;49.472;17.970;2023-05-07T04:19:19;16.05;;;8.80;;
79478;SDS011;68943;49.472;17.970;2023-05-07T04:21:45;16.83;;;10.05;;
79478;SDS011;68943;49.472;17.970;2023-05-07T04:24:11;15.93;;;10.30;;
79478;SDS011;68943;49.472;17.970;2023-05-07T04:26:37;12.18;;;9.23;;
79478;SDS011;68943;49.472;17.970;2023-05-07T04:29:03;14.75;;;9.90;;
79478;SDS011;68943;49.472;17.970;2023-05-07T04:31:30;14.18;;;9.43;;
79478;SDS011;68943;49.472;17.970;2023-05-07T04:33:56;12.57;;;8.25;;
79478;SDS011;68943;49.472;17.970;2023-05-07T04:36:22;14.38;;;9.07;;
79478;SDS011;68943;49.472;17.970;2023-05-07T04:38:52;12.95;;;8.05;;
79478;SDS011;68943;49.472;17.970;2023-05-07T04:41:18;13.20;;;8.20;;
79478;SDS011;68943;49.472;17.970;2023-05-07T04:43:44;12.18;;;8.18;;
79478;SDS011;68943;49.472;17.970;2023-05-07T04:46:10;15.80;;;9.20;;
79478;SDS011;68943;49.472;17.970;2023-05-07T04:48:36;13.98;;;9.05;;
79478;SDS011;68943;49.472;17.970;2023-05-07T04:51:02;10.40;;;7.38;;
79478;SDS011;68943;49.472;17.970;2023-05-07T04:53:28;12.15;;;8.48;;
79478;SDS011;68943;49.472;17.970;2023-05-07T04:55:55;13.82;;;8.98;;
79478;SDS011;68943;49.472;17.970;2023-05-07T04:58:24;15.55;;;8.48;;
79478;SDS011;68943;49.472;17.970;2023-05-07T05:00:50;12.55;;;8.05;;
79478;SDS011;68943;49.472;17.970;2023-05-07T05:03:16;11.50;;;8.00;;
79478;SDS011;68943;49.472;17.970;2023-05-07T05:05:43;14.70;;;9.27;;
79478;SDS011;68943;49.472;17.970;2023-05-07T05:08:09;13.75;;;8.95;;
79478;SDS011;68943;49.472;17.970;2023-05-07T05:10:35;11.65;;;7.53;;
79478;SDS011;68943;49.472;17.970;2023-05-07T05:13:01;10.55;;;7.97;;
79478;SDS011;68943;49.472;17.970;2023-05-07T05:15:27;13.52;;;7.63;;
79478;SDS011;68943;49.472;17.970;2023-05-07T05:17:53;10.07;;;7.70;;
79478;SDS011;68943;49.472;17.970;2023-05-07T05:20:19;12.10;;;8.20;;
79478;SDS011;68943;49.472;17.970;2023-05-07T05:22:45;10.95;;;7.95;;
79478;SDS011;68943;49.472;17.970;2023-05-07T05:25:11;12.60;;;7.97;;
79478;SDS011;68943;49.472;17.970;2023-05-07T05:27:37;11.60;;;8.07;;
79478;SDS011;68943;49.472;17.970;2023-05-07T05:30:03;11.80;;;7.82;;
79478;SDS011;68943;49.472;17.970;2023-05-07T05:32:30;12.70;;;8.48;;
79478;SDS011;68943;49.472;17.970;2023-05-07T05:34:56;11.02;;;6.72;;
79478;SDS011;68943;49.472;17.970;2023-05-07T05:37:22;10.40;;;7.28;;
79478;SDS011;68943;49.472;17.970;2023-05-07T05:39:49;10.32;;;7.65;;
79478;SDS011;68943;49.472;17.970;2023-05-07T05:42:15;11.02;;;7.65;;
79478;SDS011;68943;49.472;17.970;2023-05-07T05:44:40;9.52;;;6.97;;
79478;SDS011;68943;49.472;17.970;2023-05-07T05:47:07;13.90;;;7.93;;
79478;SDS011;68943;49.472;17.970;2023-05-07T05:49:33;9.80;;;7.18;;
79478;SDS011;68943;49.472;17.970;2023-05-07T05:51:59;10.70;;;7.40;;
79478;SDS011;68943;49.472;17.970;2023-05-07T05:54:25;13.13;;;8.10;;
79478;SDS011;68943;49.472;17.970;2023-05-07T05:56:51;13.95;;;8.23;;
79478;SDS011;68943;49.472;17.970;2023-05-07T05:59:17;12.65;;;8.38;;
79478;SDS011;68943;49.472;17.970;2023-05-07T06:01:43;12.85;;;8.90;;
79478;SDS011;68943;49.472;17.970;2023-05-07T06:04:09;12.52;;;8.90;;
79478;SDS011;68943;49.472;17.970;2023-05-07T06:06:35;12.48;;;8.20;;
79478;SDS011;68943;49.472;17.970;2023-05-07T06:09:01;11.75;;;7.63;;
79478;SDS011;68943;49.472;17.970;2023-05-07T06:11:27;12.88;;;8.80;;
79478;SDS011;68943;49.472;17.970;2023-05-07T06:13:53;13.45;;;7.35;;
79478;SDS011;68943;49.472;17.970;2023-05-07T06:16:19;10.88;;;6.97;;
79478;SDS011;68943;49.472;17.970;2023-05-07T06:18:45;8.93;;;6.75;;
79478;SDS011;68943;49.472;17.970;2023-05-07T06:21:13;8.48;;;6.32;;
79478;SDS011;68943;49.472;17.970;2023-05-07T06:23:40;8.98;;;6.20;;
79478;SDS011;68943;49.472;17.970;2023-05-07T06:26:09;10.20;;;7.57;;
79478;SDS011;68943;49.472;17.970;2023-05-07T06:28:35;9.60;;;6.82;;
79478;SDS011;68943;49.472;17.970;2023-05-07T06:31:18;10.02;;;7.15;;
79478;SDS011;68943;49.472;17.970;2023-05-07T06:33:48;11.93;;;7.50;;
79478;SDS011;68943;49.472;17.970;2023-05-07T06:36:15;10.60;;;7.53;;
79478;SDS011;68943;49.472;17.970;2023-05-07T06:38:41;10.65;;;7.20;;
79478;SDS011;68943;49.472;17.970;2023-05-07T06:41:08;10.18;;;6.43;;
79478;SDS011;68943;49.472;17.970;2023-05-07T06:43:35;9.57;;;6.78;;
79478;SDS011;68943;49.472;17.970;2023-05-07T06:46:01;9.98;;;6.82;;
79478;SDS011;68943;49.472;17.970;2023-05-07T06:48:27;9.85;;;6.05;;
79478;SDS011;68943;49.472;17.970;2023-05-07T06:50:53;9.27;;;6.30;;
79478;SDS011;68943;49.472;17.970;2023-05-07T06:53:20;9.10;;;6.07;;
79478;SDS011;68943;49.472;17.970;2023-05-07T06:55:46;9.57;;;5.03;;
79478;SDS011;68943;49.472;17.970;2023-05-07T06:58:12;11.07;;;5.50;;
79478;SDS011;68943;49.472;17.970;2023-05-07T07:00:38;9.35;;;6.70;;
79478;SDS011;68943;49.472;17.970;2023-05-07T07:03:05;9.95;;;6.97;;
79478;SDS011;68943;49.472;17.970;2023-05-07T07:05:31;11.55;;;6.93;;
79478;SDS011;68943;49.472;17.970;2023-05-07T07:07:58;9.73;;;6.07;;
79478;SDS011;68943;49.472;17.970;2023-05-07T07:10:24;8.95;;;6.70;;
79478;SDS011;68943;49.472;17.970;2023-05-07T07:12:50;10.65;;;6.53;;
79478;SDS011;68943;49.472;17.970;2023-05-07T07:15:17;11.00;;;6.78;;
79478;SDS011;68943;49.472;17.970;2023-05-07T07:17:45;8.65;;;5.95;;
79478;SDS011;68943;49.472;17.970;2023-05-07T07:20:11;9.63;;;6.88;;
79478;SDS011;68943;49.472;17.970;2023-05-07T07:22:37;9.55;;;6.57;;
79478;SDS011;68943;49.472;17.970;2023-05-07T07:25:03;11.07;;;5.85;;
79478;SDS011;68943;49.472;17.970;2023-05-07T07:27:29;8.25;;;4.68;;
79478;SDS011;68943;49.472;17.970;2023-05-07T07:29:55;9.68;;;5.60;;
79478;SDS011;68943;49.472;17.970;2023-05-07T07:32:21;9.88;;;5.47;;
79478;SDS011;68943;49.472;17.970;2023-05-07T07:34:47;8.50;;;4.95;;
79478;SDS011;68943;49.472;17.970;2023-05-07T07:37:13;7.75;;;4.53;;
79478;SDS011;68943;49.472;17.970;2023-05-07T07:39:39;6.90;;;5.13;;
79478;SDS011;68943;49.472;17.970;2023-05-07T07:42:06;6.10;;;4.55;;
79478;SDS011;68943;49.472;17.970;2023-05-07T07:44:32;6.80;;;4.47;;
79478;SDS011;68943;49.472;17.970;2023-05-07T07:46:58;5.30;;;3.75;;
79478;SDS011;68943;49.472;17.970;2023-05-07T07:49:24;8.00;;;4.30;;
79478;SDS011;68943;49.472;17.970;2023-05-07T07:51:50;6.88;;;4.85;;
79478;SDS011;68943;49.472;17.970;2023-05-07T07:54:16;6.97;;;4.72;;
79478;SDS011;68943;49.472;17.970;2023-05-07T07:56:42;8.50;;;5.55;;
79478;SDS011;68943;49.472;17.970;2023-05-07T07:59:08;8.43;;;5.78;;
79478;SDS011;68943;49.472;17.970;2023-05-07T08:01:34;8.07;;;4.88;;
79478;SDS011;68943;49.472;17.970;2023-05-07T08:04:00;6.00;;;4.65;;
79478;SDS011;68943;49.472;17.970;2023-05-07T08:06:28;6.22;;;4.60;;
79478;SDS011;68943;49.472;17.970;2023-05-07T08:08:54;7.68;;;5.68;;
79478;SDS011;68943;49.472;17.970;2023-05-07T08:11:20;6.75;;;4.30;;
79478;SDS011;68943;49.472;17.970;2023-05-07T08:13:46;7.63;;;5.00;;
79478;SDS011;68943;49.472;17.970;2023-05-07T08:16:13;7.13;;;4.40;;
79478;SDS011;68943;49.472;17.970;2023-05-07T08:18:39;8.68;;;4.72;;
79478;SDS011;68943;49.472;17.970;2023-05-07T08:21:05;6.38;;;5.78;;
79478;SDS011;68943;49.472;17.970;2023-05-07T08:23:31;5.93;;;3.78;;
79478;SDS011;68943;49.472;17.970;2023-05-07T08:25:59;7.55;;;4.65;;
79478;SDS011;68943;49.472;17.970;2023-05-07T08:28:25;7.45;;;5.05;;
79478;SDS011;68943;49.472;17.970;2023-05-07T08:30:51;8.77;;;6.38;;
79478;SDS011;68943;49.472;17.970;2023-05-07T08:33:17;7.93;;;5.28;;
79478;SDS011;68943;49.472;17.970;2023-05-07T08:35:43;7.53;;;6.22;;
79478;SDS011;68943;49.472;17.970;2023-05-07T08:38:09;8.20;;;5.78;;
79478;SDS011;68943;49.472;17.970;2023-05-07T08:40:36;8.52;;;6.65;;
79478;SDS011;68943;49.472;17.970;2023-05-07T08:43:03;9.90;;;7.47;;
79478;SDS011;68943;49.472;17.970;2023-05-07T08:45:30;9.68;;;6.93;;
79478;SDS011;68943;49.472;17.970;2023-05-07T08:47:59;10.18;;;6.50;;
79478;SDS011;68943;49.472;17.970;2023-05-07T08:50:25;11.52;;;7.32;;
79478;SDS011;68943;49.472;17.970;2023-05-07T08:52:51;13.77;;;8.00;;
79478;SDS011;68943;49.472;17.970;2023-05-07T08:55:17;11.70;;;7.13;;
79478;SDS011;68943;49.472;17.970;2023-05-07T08:57:44;10.57;;;6.68;;
79478;SDS011;68943;49.472;17.970;2023-05-07T09:00:10;9.38;;;6.70;;
79478;SDS011;68943;49.472;17.970;2023-05-07T09:02:36;10.43;;;7.47;;
79478;SDS011;68943;49.472;17.970;2023-05-07T09:05:02;11.90;;;7.35;;
79478;SDS011;68943;49.472;17.970;2023-05-07T09:07:29;9.88;;;6.80;;
79478;SDS011;68943;49.472;17.970;2023-05-07T09:09:56;11.57;;;7.85;;
79478;SDS011;68943;49.472;17.970;2023-05-07T09:12:22;12.35;;;7.32;;
79478;SDS011;68943;49.472;17.970;2023-05-07T09:14:49;12.00;;;8.68;;
79478;SDS011;68943;49.472;17.970;2023-05-07T09:17:15;14.90;;;8.95;;
79478;SDS011;68943;49.472;17.970;2023-05-07T09:19:43;13.63;;;7.78;;
79478;SDS011;68943;49.472;17.970;2023-05-07T09:22:09;12.20;;;7.82;;
79478;SDS011;68943;49.472;17.970;2023-05-07T09:24:35;13.32;;;8.65;;
79478;SDS011;68943;49.472;17.970;2023-05-07T09:27:06;13.45;;;8.07;;
79478;SDS011;68943;49.472;17.970;2023-05-07T09:29:33;11.63;;;8.52;;
79478;SDS011;68943;49.472;17.970;2023-05-07T09:32:05;11.57;;;7.40;;
79478;SDS011;68943;49.472;17.970;2023-05-07T09:37:04;9.98;;;6.47;;
79478;SDS011;68943;49.472;17.970;2023-05-07T09:39:46;10.90;;;6.60;;
79478;SDS011;68943;49.472;17.970;2023-05-07T09:42:12;6.82;;;4.15;;
79478;SDS011;68943;49.472;17.970;2023-05-07T09:44:43;10.40;;;6.93;;
79478;SDS011;68943;49.472;17.970;2023-05-07T09:47:12;15.60;;;9.07;;
79478;SDS011;68943;49.472;17.970;2023-05-07T09:49:41;15.40;;;8.93;;
79478;SDS011;68943;49.472;17.970;2023-05-07T09:52:10;14.98;;;8.20;;
79478;SDS011;68943;49.472;17.970;2023-05-07T09:54:39;10.52;;;6.70;;
79478;SDS011;68943;49.472;17.970;2023-05-07T09:57:08;14.27;;;7.65;;
79478;SDS011;68943;49.472;17.970;2023-05-07T09:59:34;14.15;;;8.65;;
79478;SDS011;68943;49.472;17.970;2023-05-07T10:02:03;13.95;;;9.10;;
79478;SDS011;68943;49.472;17.970;2023-05-07T10:04:29;13.20;;;8.60;;
79478;SDS011;68943;49.472;17.970;2023-05-07T10:06:56;12.40;;;6.82;;
79478;SDS011;68943;49.472;17.970;2023-05-07T10:09:23;14.95;;;10.10;;
79478;SDS011;68943;49.472;17.970;2023-05-07T10:11:50;15.70;;;9.43;;
79478;SDS011;68943;49.472;17.970;2023-05-07T10:14:16;14.15;;;8.00;;
79478;SDS011;68943;49.472;17.970;2023-05-07T10:16:43;13.77;;;7.60;;
79478;SDS011;68943;49.472;17.970;2023-05-07T10:19:09;12.43;;;8.25;;
79478;SDS011;68943;49.472;17.970;2023-05-07T10:21:36;11.57;;;7.80;;
79478;SDS011;68943;49.472;17.970;2023-05-07T10:24:08;13.68;;;8.40;;
79478;SDS011;68943;49.472;17.970;2023-05-07T10:26:42;18.55;;;7.90;;
79478;SDS011;68943;49.472;17.970;2023-05-07T10:29:28;16.67;;;6.97;;
79478;SDS011;68943;49.472;17.970;2023-05-07T10:32:09;15.55;;;8.93;;
79478;SDS011;68943;49.472;17.970;2023-05-07T10:34:37;15.52;;;7.95;;
79478;SDS011;68943;49.472;17.970;2023-05-07T10:37:04;11.52;;;7.70;;
79478;SDS011;68943;49.472;17.970;2023-05-07T10:39:31;12.20;;;8.70;;
79478;SDS011;68943;49.472;17.970;2023-05-07T10:41:57;9.18;;;6.90;;
79478;SDS011;68943;49.472;17.970;2023-05-07T10:47:08;8.95;;;6.70;;
79478;SDS011;68943;49.472;17.970;2023-05-07T10:50:20;8.25;;;6.70;;
79478;SDS011;68943;49.472;17.970;2023-05-07T10:52:21;11.77;;;7.00;;
79478;SDS011;68943;49.472;17.970;2023-05-07T10:57:35;11.40;;;7.13;;
79478;SDS011;68943;49.472;17.970;2023-05-07T11:00:40;8.68;;;6.38;;
79478;SDS011;68943;49.472;17.970;2023-05-07T11:05:26;10.88;;;7.30;;
79478;SDS011;68943;49.472;17.970;2023-05-07T11:07:55;10.50;;;6.63;;
79478;SDS011;68943;49.472;17.970;2023-05-07T11:10:22;8.45;;;5.78;;
79478;SDS011;68943;49.472;17.970;2023-05-07T11:12:48;10.65;;;7.25;;
79478;SDS011;68943;49.472;17.970;2023-05-07T11:15:15;9.93;;;6.38;;
79478;SDS011;68943;49.472;17.970;2023-05-07T11:17:59;9.00;;;6.03;;
79478;SDS011;68943;49.472;17.970;2023-05-07T11:26:08;12.93;;;7.57;;
79478;SDS011;68943;49.472;17.970;2023-05-07T11:28:38;8.93;;;6.20;;
79478;SDS011;68943;49.472;17.970;2023-05-07T11:31:04;8.02;;;5.53;;
79478;SDS011;68943;49.472;17.970;2023-05-07T11:33:31;7.97;;;6.28;;
79478;SDS011;68943;49.472;17.970;2023-05-07T11:35:57;8.75;;;6.43;;
79478;SDS011;68943;49.472;17.970;2023-05-07T11:38:23;9.18;;;7.47;;
79478;SDS011;68943;49.472;17.970;2023-05-07T11:40:55;11.13;;;7.53;;
79478;SDS011;68943;49.472;17.970;2023-05-07T11:43:21;8.93;;;7.15;;
79478;SDS011;68943;49.472;17.970;2023-05-07T11:45:47;9.80;;;6.68;;
79478;SDS011;68943;49.472;17.970;2023-05-07T11:48:14;9.23;;;7.32;;
79478;SDS011;68943;49.472;17.970;2023-05-07T11:50:53;8.20;;;7.30;;
79478;SDS011;68943;49.472;17.970;2023-05-07T11:53:20;11.50;;;7.30;;
79478;SDS011;68943;49.472;17.970;2023-05-07T11:55:46;8.93;;;6.90;;
79478;SDS011;68943;49.472;17.970;2023-05-07T11:58:12;12.95;;;9.15;;
79478;SDS011;68943;49.472;17.970;2023-05-07T12:00:39;10.02;;;7.88;;
79478;SDS011;68943;49.472;17.970;2023-05-07T12:03:13;12.27;;;8.98;;
79478;SDS011;68943;49.472;17.970;2023-05-07T12:05:39;14.05;;;9.63;;
79478;SDS011;68943;49.472;17.970;2023-05-07T12:08:06;11.95;;;8.43;;
79478;SDS011;68943;49.472;17.970;2023-05-07T12:10:32;13.52;;;8.45;;
79478;SDS011;68943;49.472;17.970;2023-05-07T12:12:58;11.52;;;9.27;;
79478;SDS011;68943;49.472;17.970;2023-05-07T12:15:24;12.57;;;9.07;;
79478;SDS011;68943;49.472;17.970;2023-05-07T12:17:50;11.35;;;8.40;;
79478;SDS011;68943;49.472;17.970;2023-05-07T12:20:17;11.52;;;7.65;;
79478;SDS011;68943;49.472;17.970;2023-05-07T12:22:43;9.02;;;7.57;;
79478;SDS011;68943;49.472;17.970;2023-05-07T12:25:11;10.70;;;6.40;;
79478;SDS011;68943;49.472;17.970;2023-05-07T12:27:40;9.55;;;7.38;;
79478;SDS011;68943;49.472;17.970;2023-05-07T12:30:06;8.88;;;7.18;;
79478;SDS011;68943;49.472;17.970;2023-05-07T12:32:35;7.90;;;4.78;;
79478;SDS011;68943;49.472;17.970;2023-05-07T12:35:01;9.02;;;7.43;;
79478;SDS011;68943;49.472;17.970;2023-05-07T12:37:27;8.15;;;6.72;;
79478;SDS011;68943;49.472;17.970;2023-05-07T12:40:07;12.18;;;6.88;;
79478;SDS011;68943;49.472;17.970;2023-05-07T12:42:37;9.63;;;7.38;;
79478;SDS011;68943;49.472;17.970;2023-05-07T12:45:09;9.07;;;7.75;;
79478;SDS011;68943;49.472;17.970;2023-05-07T12:47:36;7.85;;;6.63;;
79478;SDS011;68943;49.472;17.970;2023-05-07T12:50:04;9.15;;;7.15;;
79478;SDS011;68943;49.472;17.970;2023-05-07T12:52:31;12.23;;;8.63;;
79478;SDS011;68943;49.472;17.970;2023-05-07T12:54:57;10.77;;;7.05;;
79478;SDS011;68943;49.472;17.970;2023-05-07T12:57:49;10.88;;;8.52;;
79478;SDS011;68943;49.472;17.970;2023-05-07T13:00:16;9.80;;;7.57;;
79478;SDS011;68943;49.472;17.970;2023-05-07T13:02:42;14.85;;;11.15;;
79478;SDS011;68943;49.472;17.970;2023-05-07T13:05:13;13.23;;;9.05;;
79478;SDS011;68943;49.472;17.970;2023-05-07T13:07:39;15.40;;;10.07;;
79478;SDS011;68943;49.472;17.970;2023-05-07T13:10:05;19.60;;;12.32;;
79478;SDS011;68943;49.472;17.970;2023-05-07T13:12:32;18.17;;;12.55;;
79478;SDS011;68943;49.472;17.970;2023-05-07T13:14:58;21.23;;;13.05;;
79478;SDS011;68943;49.472;17.970;2023-05-07T13:17:25;17.40;;;10.73;;
79478;SDS011;68943;49.472;17.970;2023-05-07T13:19:51;15.02;;;9.98;;
79478;SDS011;68943;49.472;17.970;2023-05-07T13:22:17;15.10;;;11.75;;
79478;SDS011;68943;49.472;17.970;2023-05-07T13:24:43;15.60;;;11.32;;
79478;SDS011;68943;49.472;17.970;2023-05-07T13:27:09;17.25;;;12.90;;
79478;SDS011;68943;49.472;17.970;2023-05-07T13:29:37;16.92;;;11.50;;
79478;SDS011;68943;49.472;17.970;2023-05-07T13:32:03;21.13;;;13.52;;
79478;SDS011;68943;49.472;17.970;2023-05-07T13:34:29;13.55;;;9.55;;
79478;SDS011;68943;49.472;17.970;2023-05-07T13:36:55;18.25;;;14.07;;
79478;SDS011;68943;49.472;17.970;2023-05-07T13:39:21;18.02;;;12.52;;
79478;SDS011;68943;49.472;17.970;2023-05-07T13:41:47;16.67;;;12.57;;
79478;SDS011;68943;49.472;17.970;2023-05-07T13:44:13;17.83;;;12.55;;
79478;SDS011;68943;49.472;17.970;2023-05-07T13:46:40;21.85;;;14.57;;
79478;SDS011;68943;49.472;17.970;2023-05-07T13:49:06;20.13;;;14.05;;
79478;SDS011;68943;49.472;17.970;2023-05-07T13:51:33;14.95;;;10.93;;
79478;SDS011;68943;49.472;17.970;2023-05-07T13:54:00;19.10;;;13.45;;
79478;SDS011;68943;49.472;17.970;2023-05-07T13:56:26;17.20;;;13.30;;
79478;SDS011;68943;49.472;17.970;2023-05-07T13:58:54;17.33;;;11.45;;
79478;SDS011;68943;49.472;17.970;2023-05-07T14:01:20;17.67;;;12.63;;
79478;SDS011;68943;49.472;17.970;2023-05-07T14:03:49;19.05;;;13.27;;
79478;SDS011;68943;49.472;17.970;2023-05-07T14:06:15;18.92;;;13.25;;
79478;SDS011;68943;49.472;17.970;2023-05-07T14:08:41;16.73;;;11.23;;
79478;SDS011;68943;49.472;17.970;2023-05-07T14:11:07;14.68;;;10.18;;
79478;SDS011;68943;49.472;17.970;2023-05-07T14:13:33;16.75;;;12.05;;
79478;SDS011;68943;49.472;17.970;2023-05-07T14:15:59;19.77;;;12.52;;
79478;SDS011;68943;49.472;17.970;2023-05-07T14:18:26;17.20;;;12.27;;
79478;SDS011;68943;49.472;17.970;2023-05-07T14:20:53;14.07;;;10.15;;
79478;SDS011;68943;49.472;17.970;2023-05-07T14:23:20;15.77;;;12.63;;
79478;SDS011;68943;49.472;17.970;2023-05-07T14:25:51;15.95;;;11.82;;
79478;SDS011;68943;49.472;17.970;2023-05-07T14:28:17;15.30;;;10.30;;
79478;SDS011;68943;49.472;17.970;2023-05-07T14:30:43;13.85;;;9.50;;
79478;SDS011;68943;49.472;17.970;2023-05-07T14:33:09;19.52;;;13.25;;
79478;SDS011;68943;49.472;17.970;2023-05-07T14:35:35;19.17;;;12.90;;